CMA CGM Musset — 9HA2284 — position and weather

sailwx.info

Track history (hours):
 
Tides and Currents Weather Stations Pressure Air Temp Water Temp Dewpoint Dewpoint Depression Visibility Wind Speed Wind Dir Waves Ship Positions

CMA CGM Musset

Last reported at 2018-Feb-19 19:46 UTC. Time now 2018-Feb-19 20:15 UTC.
Position N 28°60' W 094°35'.

Length 300 m; draft 10.9 m.

Type: Ship (hazmat cat D). MMSI: 248247000.

Date/timePositionNaut miles runAvg speedWind from/ knotsBaromVisibWave heightAir tempDewpointWater temp
2018-Feb-19 19:46N 28°60' W 094°35'0 0.0
2018-Feb-19 19:22N 28°60' W 094°35'0 0.0
2018-Feb-19 18:58N 28°60' W 094°35'0 0.0
2018-Feb-19 18:13N 28°60' W 094°35'0 0.0
2018-Feb-19 17:49N 28°60' W 094°35'0 0.0
2018-Feb-19 17:19N 28°60' W 094°35'0 0.0
2018-Feb-19 16:58N 28°60' W 094°35'0 0.0
2018-Feb-19 16:28N 28°60' W 094°35'0 0.0
2018-Feb-19 15:58N 28°60' W 094°35'0 0.0
2018-Feb-19 15:28N 28°60' W 094°35'0 0.0
2018-Feb-19 14:19N 28°60' W 094°35'0 0.0
2018-Feb-19 13:49N 28°60' W 094°35'0 0.0
2018-Feb-19 13:19N 28°60' W 094°35'0 0.0
2018-Feb-19 12:40N 28°60' W 094°35'0 0.0
2018-Feb-19 12:25N 28°60' W 094°35'0 0.0
2018-Feb-19 11:58N 28°60' W 094°35'0 0.1
2018-Feb-19 11:28N 28°60' W 094°35'0 0.0
2018-Feb-19 10:55N 28°60' W 094°35'0 0.0
2018-Feb-19 10:28N 28°60' W 094°35'0 0.0
2018-Feb-19 09:58N 28°60' W 094°35'0 0.0
2018-Feb-19 09:28N 28°60' W 094°35'0 0.0
2018-Feb-19 08:58N 28°60' W 094°35'0 0.0
2018-Feb-19 08:25N 28°60' W 094°35'0 0.0
2018-Feb-19 07:58N 28°60' W 094°35'0 0.0
2018-Feb-19 07:28N 28°60' W 094°35'0 0.0
2018-Feb-19 06:55N 28°60' W 094°35'0 0.0
2018-Feb-19 06:28N 28°60' W 094°35'0 0.0
2018-Feb-19 05:55N 28°60' W 094°35'0 0.0
2018-Feb-19 05:28N 28°60' W 094°35'0 0.0
2018-Feb-19 04:58N 28°60' W 094°35'0 0.0
2018-Feb-19 04:28N 28°60' W 094°35'0 0.0
2018-Feb-19 03:58N 28°60' W 094°35'0 0.0
2018-Feb-19 03:28N 28°60' W 094°35'0 0.0
2018-Feb-19 02:19N 28°60' W 094°36'0 0.0
2018-Feb-19 01:40N 28°60' W 094°36'0 0.0
2018-Feb-18 22:52N 28°60' W 094°36'0 0.0
2018-Feb-18 19:18N 28°60' W 094°36'0 0.6
2018-Feb-18 18:59N 28°59' W 094°36'3 5.2
2018-Feb-18 18:29N 28°57' W 094°35'712.5
2018-Feb-18 17:55N 28°52' W 094°28'511.6
2018-Feb-18 17:28N 28°48' W 094°25'612.9
2018-Feb-18 17:00N 28°42' W 094°24'712.9
2018-Feb-18 16:29N 28°36' W 094°24'613.0
2018-Feb-18 16:00N 28°29' W 094°24'612.8
2018-Feb-18 15:30N 28°23' W 094°25'713.0
2018-Feb-18 14:58N 28°16' W 094°25'812.8
2018-Feb-18 14:22N 28°08' W 094°25'913.2
2018-Feb-18 13:40N 27°59' W 094°25'213.3
2018-Feb-18 13:29N 27°57' W 094°25'613.2
2018-Feb-18 13:00N 27°50' W 094°24'1011.2
2018-Feb-18 12:05N 27°43' W 094°16'1 1.3
2018-Feb-18 11:16N 27°42' W 094°17'2 1.1
2018-Feb-18 09:39N 27°40' W 094°18'0 1.0
2018-Feb-18 09:29N 27°40' W 094°18'1 1.0
2018-Feb-18 09:00N 27°40' W 094°18'1 1.0
2018-Feb-18 08:30N 27°39' W 094°18'1 0.9
2018-Feb-18 07:54N 27°39' W 094°19'0 1.0
2018-Feb-18 07:30N 27°38' W 094°19'0 1.0
2018-Feb-18 07:00N 27°38' W 094°19'0 0.9
2018-Feb-18 06:28N 27°37' W 094°19'0 0.9
2018-Feb-18 05:58N 27°37' W 094°19'0 0.8
2018-Feb-18 05:29N 27°37' W 094°19'0 0.8
2018-Feb-18 04:58N 27°36' W 094°19'0 0.7
2018-Feb-18 04:25N 27°36' W 094°19'1 0.8
2018-Feb-18 03:23N 27°35' W 094°20'0 0.9
2018-Feb-18 02:59N 27°35' W 094°20'1 1.0
2018-Feb-18 02:29N 27°34' W 094°20'1 1.1
2018-Feb-18 01:59N 27°34' W 094°21'1 1.2
2018-Feb-18 01:00N 27°33' W 094°21'2 1.4
2018-Feb-17 23:35N 27°31' W 094°23'0 1.5
2018-Feb-17 23:29N 27°31' W 094°23'2 2.0
2018-Feb-17 22:34N 27°30' W 094°24'1 5.2
2018-Feb-17 22:25N 27°29' W 094°24'511.3
2018-Feb-17 22:00N 27°24' W 094°24'4613.4
2018-Feb-17 18:35N 26°42' W 094°45'214.5
2018-Feb-17 18:28N 26°41' W 094°46'4214.3
2018-Feb-17 15:32N 26°06' W 095°11'314.0
2018-Feb-17 15:17N 26°03' W 095°13'514.0
2018-Feb-17 14:56N 25°59' W 095°16'613.9
2018-Feb-17 14:30N 25°54' W 095°19'2313.8
2018-Feb-17 12:50N 25°34' W 095°33'11913.4
2018-Feb-17 03:57N 23°54' W 096°43'251 5.0
2018-Feb-15 01:38N 19°44' W 096°10'212.6
2018-Feb-15 01:28N 19°42' W 096°09'916.7
2018-Feb-15 00:57N 19°35' W 096°05'816.9
2018-Feb-15 00:28N 19°27' W 096°01'817.1
2018-Feb-14 23:59N 19°20' W 095°58'915.7
2018-Feb-14 23:26N 19°12' W 096°02'4 8.8
2018-Feb-14 23:00N 19°12' W 096°06'2 1.7
2018-Feb-14 21:36N 19°13' W 096°08'0 0.0
2018-Feb-14 19:48N 19°13' W 096°08'0 0.0
2018-Feb-14 19:12N 19°13' W 096°08'0 0.0
2018-Feb-14 18:42N 19°13' W 096°08'0 0.0
2018-Feb-14 18:18N 19°13' W 096°08'0 0.0
2018-Feb-14 17:42N 19°13' W 096°08'0 0.0
2018-Feb-14 16:57N 19°13' W 096°08'0 0.0
2018-Feb-14 16:27N 19°13' W 096°08'0 0.0
2018-Feb-14 15:48N 19°13' W 096°08'0 0.0
2018-Feb-14 15:24N 19°13' W 096°08'0 0.0
2018-Feb-14 12:33N 19°13' W 096°08'0 0.1
2018-Feb-14 12:30N 19°13' W 096°08'0 0.0
2018-Feb-14 11:42N 19°13' W 096°08'0 0.0
2018-Feb-14 11:25N 19°13' W 096°08'0 0.0
2018-Feb-14 10:55N 19°13' W 096°08'0 0.0
2018-Feb-14 10:25N 19°13' W 096°08'0 0.0
2018-Feb-14 09:58N 19°13' W 096°08'0 0.0
2018-Feb-14 09:28N 19°13' W 096°08'0 0.0
2018-Feb-14 08:58N 19°13' W 096°08'0 0.0
2018-Feb-14 08:28N 19°13' W 096°08'0 0.0
2018-Feb-14 07:58N 19°13' W 096°08'0 0.0
2018-Feb-14 07:28N 19°13' W 096°08'1 1.8
2018-Feb-14 07:00N 19°12' W 096°07'5 9.4
2018-Feb-14 06:30N 19°11' W 096°03'2 3.6
2018-Feb-14 05:56N 19°09' W 096°01'0 0.2
2018-Feb-14 05:26N 19°09' W 096°01'0 0.0
2018-Feb-14 04:56N 19°09' W 096°01'0 0.0
2018-Feb-14 04:26N 19°09' W 096°01'0 0.0
2018-Feb-14 03:56N 19°09' W 096°01'0 0.0
2018-Feb-14 03:20N 19°09' W 096°01'0 0.0
2018-Feb-14 02:56N 19°09' W 096°01'0 0.0
2018-Feb-14 01:20N 19°09' W 096°01'0 0.0
2018-Feb-13 22:38N 19°09' W 096°01'0 0.4
2018-Feb-13 22:26N 19°09' W 096°01'0 0.1
2018-Feb-13 21:56N 19°09' W 096°01'0 0.0
2018-Feb-13 21:20N 19°09' W 096°01'0 0.0
2018-Feb-13 20:56N 19°09' W 096°01'0 0.2
2018-Feb-13 20:30N 19°09' W 096°01'1 2.3
2018-Feb-13 20:00N 19°08' W 096°00'510.7
2018-Feb-13 19:30N 19°12' W 095°56'510.7
2018-Feb-13 19:00N 19°15' W 095°51'510.8
2018-Feb-13 18:30N 19°15' W 095°45'  
2018-Feb-11 01:27N 25°33' W 079°37'816.8
2018-Feb-11 01:00N 25°40' W 079°39'611.7
2018-Feb-11 00:30N 25°45' W 079°43'611.4
2018-Feb-10 23:59N 25°45' W 079°50'611.6
2018-Feb-10 23:30N 25°45' W 079°56'611.5
2018-Feb-10 23:01N 25°45' W 080°02'5 9.7
2018-Feb-10 22:30N 25°46' W 080°07'2 3.4
2018-Feb-10 22:00N 25°46' W 080°09'0 0.0
2018-Feb-10 21:27N 25°46' W 080°09'0 0.0
2018-Feb-10 21:00N 25°46' W 080°09'0 0.0
2018-Feb-10 20:27N 25°46' W 080°09'0 0.0
2018-Feb-10 19:57N 25°46' W 080°09'0 0.0
2018-Feb-10 19:30N 25°46' W 080°09'0 0.0
2018-Feb-10 19:00N 25°46' W 080°09'0 0.0
2018-Feb-10 18:30N 25°46' W 080°09'0 0.0
2018-Feb-10 18:00N 25°46' W 080°09'0 0.0
2018-Feb-10 17:30N 25°46' W 080°09'0 0.0
2018-Feb-10 17:00N 25°46' W 080°09'0 0.0
2018-Feb-10 16:30N 25°46' W 080°09'0 0.0
2018-Feb-10 16:00N 25°46' W 080°09'0 0.0
2018-Feb-10 15:30N 25°46' W 080°09'0 0.0
2018-Feb-10 15:00N 25°46' W 080°09'0 0.0
2018-Feb-10 14:30N 25°46' W 080°09'0 0.0
2018-Feb-10 14:00N 25°46' W 080°09'0 0.0
2018-Feb-10 13:30N 25°46' W 080°09'0 0.0
2018-Feb-10 13:00N 25°46' W 080°09'0 0.0
2018-Feb-10 12:30N 25°46' W 080°09'0 0.0
2018-Feb-10 12:00N 25°46' W 080°09'0 1.0
2018-Feb-10 11:30N 25°46' W 080°09'3 5.5
2018-Feb-10 11:00N 25°46' W 080°06'4 8.7
2018-Feb-10 10:30N 25°47' W 080°01'4 7.9
2018-Feb-10 10:00N 25°51' W 080°02'3 5.7
2018-Feb-10 09:30N 25°54' W 080°02'1 2.8
2018-Feb-10 09:00N 25°52' W 080°01'1 3.0
2018-Feb-10 08:30N 25°51' W 080°01'2 3.3
2018-Feb-10 08:00N 25°49' W 080°00'2 3.6
2018-Feb-10 07:30N 25°47' W 079°60'2 3.9
2018-Feb-10 07:00N 25°46' W 079°60'2 4.1
2018-Feb-10 06:30N 25°44' W 079°59'2 3.8
2018-Feb-10 06:00N 25°42' W 079°58'2 3.6
2018-Feb-10 05:30N 25°40' W 079°58'1 2.6
2018-Feb-10 05:00N 25°39' W 079°58'3 5.6
2018-Feb-10 04:30N 25°42' W 079°58'4 8.6
2018-Feb-10 04:00N 25°46' W 079°58'4 8.6
2018-Feb-10 03:30N 25°50' W 079°57'4 8.6
2018-Feb-10 03:00N 25°54' W 079°57'4 8.9
2018-Feb-10 02:30N 25°59' W 079°56'5 9.0
2018-Feb-10 02:00N 26°03' W 079°56'5 9.0
2018-Feb-10 01:30N 26°08' W 079°55'4 8.8
2018-Feb-10 01:00N 26°12' W 079°54'4 8.7
2018-Feb-10 00:30N 26°17' W 079°54'5 8.7
2018-Feb-09 23:59N 26°21' W 079°53'4 8.8
2018-Feb-09 23:30N 26°25' W 079°52'4 9.0
2018-Feb-09 23:00N 26°30' W 079°52'2 9.0
2018-Feb-09 22:45N 26°32' W 079°51'25 9.0
2018-Feb-09 20:00N 26°57' W 079°49'  
Track history (hours):
 
Tides and Currents Weather Stations Pressure Air Temp Water Temp Dewpoint Dewpoint Depression Visibility Wind Speed Wind Dir Waves Ship Positions

CMA CGM Musset

Last reported at 2018-Feb-19 19:46 UTC. Time now 2018-Feb-19 20:15 UTC.
Position N 28°60' W 094°35'.

Length 300 m; draft 10.9 m.

Type: Ship (hazmat cat D). MMSI: 248247000.

Date/timePositionNaut miles runAvg speedWind from/ knotsBaromVisibWave heightAir tempDewpointWater temp
2018-Feb-19 19:46N 28°60' W 094°35'0 0.0
2018-Feb-19 19:22N 28°60' W 094°35'0 0.0
2018-Feb-19 18:58N 28°60' W 094°35'0 0.0
2018-Feb-19 18:13N 28°60' W 094°35'0 0.0
2018-Feb-19 17:49N 28°60' W 094°35'0 0.0
2018-Feb-19 17:19N 28°60' W 094°35'0 0.0
2018-Feb-19 16:58N 28°60' W 094°35'0 0.0
2018-Feb-19 16:28N 28°60' W 094°35'0 0.0
2018-Feb-19 15:58N 28°60' W 094°35'0 0.0
2018-Feb-19 15:28N 28°60' W 094°35'0 0.0
2018-Feb-19 14:19N 28°60' W 094°35'0 0.0
2018-Feb-19 13:49N 28°60' W 094°35'0 0.0
2018-Feb-19 13:19N 28°60' W 094°35'0 0.0
2018-Feb-19 12:40N 28°60' W 094°35'0 0.0
2018-Feb-19 12:25N 28°60' W 094°35'0 0.0
2018-Feb-19 11:58N 28°60' W 094°35'0 0.1
2018-Feb-19 11:28N 28°60' W 094°35'0 0.0
2018-Feb-19 10:55N 28°60' W 094°35'0 0.0
2018-Feb-19 10:28N 28°60' W 094°35'0 0.0
2018-Feb-19 09:58N 28°60' W 094°35'0 0.0
2018-Feb-19 09:28N 28°60' W 094°35'0 0.0
2018-Feb-19 08:58N 28°60' W 094°35'0 0.0
2018-Feb-19 08:25N 28°60' W 094°35'0 0.0
2018-Feb-19 07:58N 28°60' W 094°35'0 0.0
2018-Feb-19 07:28N 28°60' W 094°35'0 0.0
2018-Feb-19 06:55N 28°60' W 094°35'0 0.0
2018-Feb-19 06:28N 28°60' W 094°35'0 0.0
2018-Feb-19 05:55N 28°60' W 094°35'0 0.0
2018-Feb-19 05:28N 28°60' W 094°35'0 0.0
2018-Feb-19 04:58N 28°60' W 094°35'0 0.0
2018-Feb-19 04:28N 28°60' W 094°35'0 0.0
2018-Feb-19 03:58N 28°60' W 094°35'0 0.0
2018-Feb-19 03:28N 28°60' W 094°35'0 0.0
2018-Feb-19 02:19N 28°60' W 094°36'0 0.0
2018-Feb-19 01:40N 28°60' W 094°36'0 0.0
2018-Feb-18 22:52N 28°60' W 094°36'0 0.0
2018-Feb-18 19:18N 28°60' W 094°36'0 0.6
2018-Feb-18 18:59N 28°59' W 094°36'3 5.2
2018-Feb-18 18:29N 28°57' W 094°35'712.5
2018-Feb-18 17:55N 28°52' W 094°28'511.6
2018-Feb-18 17:28N 28°48' W 094°25'612.9
2018-Feb-18 17:00N 28°42' W 094°24'712.9
2018-Feb-18 16:29N 28°36' W 094°24'613.0
2018-Feb-18 16:00N 28°29' W 094°24'612.8
2018-Feb-18 15:30N 28°23' W 094°25'713.0
2018-Feb-18 14:58N 28°16' W 094°25'812.8
2018-Feb-18 14:22N 28°08' W 094°25'913.2
2018-Feb-18 13:40N 27°59' W 094°25'213.3
2018-Feb-18 13:29N 27°57' W 094°25'613.2
2018-Feb-18 13:00N 27°50' W 094°24'1011.2
2018-Feb-18 12:05N 27°43' W 094°16'1 1.3
2018-Feb-18 11:16N 27°42' W 094°17'2 1.1
2018-Feb-18 09:39N 27°40' W 094°18'0 1.0
2018-Feb-18 09:29N 27°40' W 094°18'1 1.0
2018-Feb-18 09:00N 27°40' W 094°18'1 1.0
2018-Feb-18 08:30N 27°39' W 094°18'1 0.9
2018-Feb-18 07:54N 27°39' W 094°19'0 1.0
2018-Feb-18 07:30N 27°38' W 094°19'0 1.0
2018-Feb-18 07:00N 27°38' W 094°19'0 0.9
2018-Feb-18 06:28N 27°37' W 094°19'0 0.9
2018-Feb-18 05:58N 27°37' W 094°19'0 0.8
2018-Feb-18 05:29N 27°37' W 094°19'0 0.8
2018-Feb-18 04:58N 27°36' W 094°19'0 0.7
2018-Feb-18 04:25N 27°36' W 094°19'1 0.8
2018-Feb-18 03:23N 27°35' W 094°20'0 0.9
2018-Feb-18 02:59N 27°35' W 094°20'1 1.0
2018-Feb-18 02:29N 27°34' W 094°20'1 1.1
2018-Feb-18 01:59N 27°34' W 094°21'1 1.2
2018-Feb-18 01:00N 27°33' W 094°21'2 1.4
2018-Feb-17 23:35N 27°31' W 094°23'0 1.5
2018-Feb-17 23:29N 27°31' W 094°23'2 2.0
2018-Feb-17 22:34N 27°30' W 094°24'1 5.2
2018-Feb-17 22:25N 27°29' W 094°24'511.3
2018-Feb-17 22:00N 27°24' W 094°24'4613.4
2018-Feb-17 18:35N 26°42' W 094°45'214.5
2018-Feb-17 18:28N 26°41' W 094°46'4214.3
2018-Feb-17 15:32N 26°06' W 095°11'314.0
2018-Feb-17 15:17N 26°03' W 095°13'514.0
2018-Feb-17 14:56N 25°59' W 095°16'613.9
2018-Feb-17 14:30N 25°54' W 095°19'2313.8
2018-Feb-17 12:50N 25°34' W 095°33'11913.4
2018-Feb-17 03:57N 23°54' W 096°43'251 5.0
2018-Feb-15 01:38N 19°44' W 096°10'212.6
2018-Feb-15 01:28N 19°42' W 096°09'916.7
2018-Feb-15 00:57N 19°35' W 096°05'816.9
2018-Feb-15 00:28N 19°27' W 096°01'817.1
2018-Feb-14 23:59N 19°20' W 095°58'915.7
2018-Feb-14 23:26N 19°12' W 096°02'4 8.8
2018-Feb-14 23:00N 19°12' W 096°06'2 1.7
2018-Feb-14 21:36N 19°13' W 096°08'0 0.0
2018-Feb-14 19:48N 19°13' W 096°08'0 0.0
2018-Feb-14 19:12N 19°13' W 096°08'0 0.0
2018-Feb-14 18:42N 19°13' W 096°08'0 0.0
2018-Feb-14 18:18N 19°13' W 096°08'0 0.0
2018-Feb-14 17:42N 19°13' W 096°08'0 0.0
2018-Feb-14 16:57N 19°13' W 096°08'0 0.0
2018-Feb-14 16:27N 19°13' W 096°08'0 0.0
2018-Feb-14 15:48N 19°13' W 096°08'0 0.0
2018-Feb-14 15:24N 19°13' W 096°08'0 0.0
2018-Feb-14 12:33N 19°13' W 096°08'0 0.1
2018-Feb-14 12:30N 19°13' W 096°08'0 0.0
2018-Feb-14 11:42N 19°13' W 096°08'0 0.0
2018-Feb-14 11:25N 19°13' W 096°08'0 0.0
2018-Feb-14 10:55N 19°13' W 096°08'0 0.0
2018-Feb-14 10:25N 19°13' W 096°08'0 0.0
2018-Feb-14 09:58N 19°13' W 096°08'0 0.0
2018-Feb-14 09:28N 19°13' W 096°08'0 0.0
2018-Feb-14 08:58N 19°13' W 096°08'0 0.0
2018-Feb-14 08:28N 19°13' W 096°08'0 0.0
2018-Feb-14 07:58N 19°13' W 096°08'0 0.0
2018-Feb-14 07:28N 19°13' W 096°08'1 1.8
2018-Feb-14 07:00N 19°12' W 096°07'5 9.4
2018-Feb-14 06:30N 19°11' W 096°03'2 3.6
2018-Feb-14 05:56N 19°09' W 096°01'0 0.2
2018-Feb-14 05:26N 19°09' W 096°01'0 0.0
2018-Feb-14 04:56N 19°09' W 096°01'0 0.0
2018-Feb-14 04:26N 19°09' W 096°01'0 0.0
2018-Feb-14 03:56N 19°09' W 096°01'0 0.0
2018-Feb-14 03:20N 19°09' W 096°01'0 0.0
2018-Feb-14 02:56N 19°09' W 096°01'0 0.0
2018-Feb-14 01:20N 19°09' W 096°01'0 0.0
2018-Feb-13 22:38N 19°09' W 096°01'0 0.4
2018-Feb-13 22:26N 19°09' W 096°01'0 0.1
2018-Feb-13 21:56N 19°09' W 096°01'0 0.0
2018-Feb-13 21:20N 19°09' W 096°01'0 0.0
2018-Feb-13 20:56N 19°09' W 096°01'0 0.2
2018-Feb-13 20:30N 19°09' W 096°01'1 2.3
2018-Feb-13 20:00N 19°08' W 096°00'510.7
2018-Feb-13 19:30N 19°12' W 095°56'510.7
2018-Feb-13 19:00N 19°15' W 095°51'510.8
2018-Feb-13 18:30N 19°15' W 095°45'  
2018-Feb-11 01:27N 25°33' W 079°37'816.8
2018-Feb-11 01:00N 25°40' W 079°39'611.7
2018-Feb-11 00:30N 25°45' W 079°43'611.4
2018-Feb-10 23:59N 25°45' W 079°50'611.6
2018-Feb-10 23:30N 25°45' W 079°56'611.5
2018-Feb-10 23:01N 25°45' W 080°02'5 9.7
2018-Feb-10 22:30N 25°46' W 080°07'2 3.4
2018-Feb-10 22:00N 25°46' W 080°09'0 0.0
2018-Feb-10 21:27N 25°46' W 080°09'0 0.0
2018-Feb-10 21:00N 25°46' W 080°09'0 0.0
2018-Feb-10 20:27N 25°46' W 080°09'0 0.0
2018-Feb-10 19:57N 25°46' W 080°09'0 0.0
2018-Feb-10 19:30N 25°46' W 080°09'0 0.0
2018-Feb-10 19:00N 25°46' W 080°09'0 0.0
2018-Feb-10 18:30N 25°46' W 080°09'0 0.0
2018-Feb-10 18:00N 25°46' W 080°09'0 0.0
2018-Feb-10 17:30N 25°46' W 080°09'0 0.0
2018-Feb-10 17:00N 25°46' W 080°09'0 0.0
2018-Feb-10 16:30N 25°46' W 080°09'0 0.0
2018-Feb-10 16:00N 25°46' W 080°09'0 0.0
2018-Feb-10 15:30N 25°46' W 080°09'0 0.0
2018-Feb-10 15:00N 25°46' W 080°09'0 0.0
2018-Feb-10 14:30N 25°46' W 080°09'0 0.0
2018-Feb-10 14:00N 25°46' W 080°09'0 0.0
2018-Feb-10 13:30N 25°46' W 080°09'0 0.0
2018-Feb-10 13:00N 25°46' W 080°09'0 0.0
2018-Feb-10 12:30N 25°46' W 080°09'0 0.0
2018-Feb-10 12:00N 25°46' W 080°09'0 1.0
2018-Feb-10 11:30N 25°46' W 080°09'3 5.5
2018-Feb-10 11:00N 25°46' W 080°06'4 8.7
2018-Feb-10 10:30N 25°47' W 080°01'4 7.9
2018-Feb-10 10:00N 25°51' W 080°02'3 5.7
2018-Feb-10 09:30N 25°54' W 080°02'1 2.8
2018-Feb-10 09:00N 25°52' W 080°01'1 3.0
2018-Feb-10 08:30N 25°51' W 080°01'2 3.3
2018-Feb-10 08:00N 25°49' W 080°00'2 3.6
2018-Feb-10 07:30N 25°47' W 079°60'2 3.9
2018-Feb-10 07:00N 25°46' W 079°60'2 4.1
2018-Feb-10 06:30N 25°44' W 079°59'2 3.8
2018-Feb-10 06:00N 25°42' W 079°58'2 3.6
2018-Feb-10 05:30N 25°40' W 079°58'1 2.6
2018-Feb-10 05:00N 25°39' W 079°58'3 5.6
2018-Feb-10 04:30N 25°42' W 079°58'4 8.6
2018-Feb-10 04:00N 25°46' W 079°58'4 8.6
2018-Feb-10 03:30N 25°50' W 079°57'4 8.6
2018-Feb-10 03:00N 25°54' W 079°57'4 8.9
2018-Feb-10 02:30N 25°59' W 079°56'5 9.0
2018-Feb-10 02:00N 26°03' W 079°56'5 9.0
2018-Feb-10 01:30N 26°08' W 079°55'4 8.8
2018-Feb-10 01:00N 26°12' W 079°54'4 8.7
2018-Feb-10 00:30N 26°17' W 079°54'5 8.7
2018-Feb-09 23:59N 26°21' W 079°53'4 8.8
2018-Feb-09 23:30N 26°25' W 079°52'4 9.0
2018-Feb-09 23:00N 26°30' W 079°52'2 9.0
2018-Feb-09 22:45N 26°32' W 079°51'25 9.0
2018-Feb-09 20:00N 26°57' W 079°49'  

Dump ship's entire track history